Time;durP1;ratioP1;P1;durP2;ratioP2;P2;SDS_P1;SDS_P2;PMS_P1;PMS_P2;Temp;Humidity;BMP_temperature;BMP_pressure;BME280_temperature;BME280_humidity;BME280_pressure;Samples;Min_cycle;Max_cycle;Signal;HPM_P1;HPM_P2
2021/05/19 00:00:56;;;;;;;;;;;5.50;96.40;;;;;;5044874;28;19932;-68
2021/05/19 00:03:23;;;;;;;;;;;5.40;96.30;;;;;;5059663;28;19968;-67
2021/05/19 00:05:48;;;;;;;;;;;5.50;96.40;;;;;;5059985;28;19920;-68
2021/05/19 00:08:14;;;;;;;;;;;5.50;96.40;;;;;;5056288;28;20233;-68
2021/05/19 00:10:40;;;;;;;;;;;5.40;96.40;;;;;;5055304;28;20011;-67
2021/05/19 00:13:06;;;;;;;;;;;5.30;96.40;;;;;;5053295;28;19974;-67
2021/05/19 00:15:32;;;;;;;;;;;5.30;96.40;;;;;;5057513;28;19924;-68
2021/05/19 00:18:00;;;;;;;;;;;5.30;96.40;;;;;;5059484;28;19928;-67
2021/05/19 00:20:26;;;;;;;;;;;5.40;96.40;;;;;;5060841;28;19920;-66
2021/05/19 00:22:51;;;;;;;;;;;5.50;96.40;;;;;;5065273;28;19927;-67
2021/05/19 00:25:17;;;;;;;;;;;5.60;96.50;;;;;;5063091;28;20388;-67
2021/05/19 00:27:43;;;;;;;;;;;5.60;96.50;;;;;;5057705;28;19916;-68
2021/05/19 00:30:13;;;;;;;;;;;5.60;96.60;;;;;;5061290;28;20331;-66
2021/05/19 00:32:38;;;;;;;;;;;5.70;96.70;;;;;;5065185;28;19916;-69
2021/05/19 00:35:04;;;;;;;;;;;5.70;96.70;;;;;;5060394;28;19970;-68
2021/05/19 00:37:29;;;;;;;;;;;5.60;96.60;;;;;;5043840;28;19923;-67
2021/05/19 00:39:55;;;;;;;;;;;5.60;96.60;;;;;;5061715;28;19966;-68
2021/05/19 00:42:20;;;;;;;;;;;5.60;96.60;;;;;;5056129;28;19957;-68
2021/05/19 00:44:46;;;;;;;;;;;5.50;96.70;;;;;;5061191;28;19929;-68
2021/05/19 00:47:11;;;;;;;;;;;5.40;96.70;;;;;;5061489;28;19917;-67
2021/05/19 00:49:37;;;;;;;;;;;5.30;96.60;;;;;;5061308;28;20405;-70
2021/05/19 00:52:02;;;;;;;;;;;5.30;96.70;;;;;;5041951;28;19920;-68
2021/05/19 00:54:28;;;;;;;;;;;5.30;96.70;;;;;;5054164;28;20044;-69
2021/05/19 00:56:53;;;;;;;;;;;5.30;96.80;;;;;;5061100;28;20007;-67
2021/05/19 00:59:19;;;;;;;;;;;5.20;96.80;;;;;;5059817;28;20006;-68
2021/05/19 01:01:44;;;;;;;;;;;5.20;96.80;;;;;;5041710;28;20333;-67
2021/05/19 01:04:10;;;;;;;;;;;5.20;96.70;;;;;;5062148;28;19957;-67
2021/05/19 01:11:46;;;;;;;;;;;5.30;96.70;;;;;;5065080;28;20269;-67
2021/05/19 01:14:11;;;;;;;;;;;5.30;96.70;;;;;;5060683;28;19909;-68
2021/05/19 01:16:37;;;;;;;;;;;5.20;96.60;;;;;;5060384;28;19912;-68
2021/05/19 01:19:03;;;;;;;;;;;5.20;96.60;;;;;;5061214;28;20279;-68
2021/05/19 01:21:28;;;;;;;;;;;5.10;96.40;;;;;;5047332;28;20434;-68
2021/05/19 01:23:54;;;;;;;;;;;5.00;96.30;;;;;;5062120;28;19969;-68
2021/05/19 01:26:19;;;;;;;;;;;4.90;96.40;;;;;;5058678;28;19923;-68
2021/05/19 01:28:45;;;;;;;;;;;4.90;96.40;;;;;;5060751;28;20364;-68
2021/05/19 01:31:11;;;;;;;;;;;4.90;96.50;;;;;;5060061;28;19916;-68
2021/05/19 01:33:38;;;;;;;;;;;4.80;96.50;;;;;;5054436;28;19917;-68
2021/05/19 01:36:03;;;;;;;;;;;4.80;96.50;;;;;;5061292;28;19994;-67
2021/05/19 01:38:29;;;;;;;;;;;4.80;96.60;;;;;;5061763;28;19912;-67
2021/05/19 01:40:54;;;;;;;;;;;4.80;96.70;;;;;;5066805;28;20402;-69
2021/05/19 01:43:28;;;;;;;;;;;4.70;96.70;;;;;;5066649;28;20010;-68
2021/05/19 01:45:53;;;;;;;;;;;4.70;96.70;;;;;;5060577;28;19912;-68
2021/05/19 01:48:20;;;;;;;;;;;4.60;96.80;;;;;;5066563;28;19978;-67
2021/05/19 01:50:46;;;;;;;;;;;4.60;96.80;;;;;;5066129;28;19920;-67
2021/05/19 01:53:12;;;;;;;;;;;4.60;96.80;;;;;;5062485;28;19916;-67
2021/05/19 01:55:37;;;;;;;;;;;4.50;96.80;;;;;;5061044;28;19934;-68
2021/05/19 01:58:04;;;;;;;;;;;4.50;96.80;;;;;;5062007;28;19916;-68
2021/05/19 02:00:30;;;;;;;;;;;4.60;97.00;;;;;;5066605;28;20320;-68
2021/05/19 02:02:57;;;;;;;;;;;4.70;97.30;;;;;;5068829;28;20010;-68
2021/05/19 02:05:23;;;;;;;;;;;4.80;97.40;;;;;;5066143;28;19916;-67
2021/05/19 02:07:49;;;;;;;;;;;4.70;97.30;;;;;;5064782;28;19981;-68
2021/05/19 02:10:14;;;;;;;;;;;4.60;97.30;;;;;;5042207;28;19924;-67
2021/05/19 02:12:40;;;;;;;;;;;4.60;97.30;;;;;;5063698;28;19981;-70
2021/05/19 02:15:06;;;;;;;;;;;4.60;97.30;;;;;;5065311;28;19927;-68
2021/05/19 02:17:31;;;;;;;;;;;4.60;97.50;;;;;;5063100;28;20387;-67
2021/05/19 02:20:05;;;;;;;;;;;4.60;97.60;;;;;;5059449;28;20011;-68
2021/05/19 02:22:31;;;;;;;;;;;4.60;97.60;;;;;;5065280;28;19923;-69
2021/05/19 02:24:56;;;;;;;;;;;4.60;97.60;;;;;;5066276;28;19916;-68
2021/05/19 02:27:22;;;;;;;;;;;4.60;97.60;;;;;;5064854;28;20377;-67
2021/05/19 02:29:57;;;;;;;;;;;4.60;97.60;;;;;;5053160;28;20388;-68
2021/05/19 02:32:23;;;;;;;;;;;4.60;97.70;;;;;;5044258;28;19920;-68
2021/05/19 02:34:48;;;;;;;;;;;4.60;97.70;;;;;;5065917;28;19983;-69
2021/05/19 02:37:14;;;;;;;;;;;4.60;97.80;;;;;;5062754;28;19987;-69
2021/05/19 02:39:39;;;;;;;;;;;4.70;97.80;;;;;;5048218;28;19966;-67
2021/05/19 02:42:05;;;;;;;;;;;4.50;97.70;;;;;;5064871;28;20321;-68
2021/05/19 02:44:30;;;;;;;;;;;4.50;97.70;;;;;;5063820;28;20264;-68
2021/05/19 02:46:56;;;;;;;;;;;4.40;97.70;;;;;;5066425;28;20082;-67
2021/05/19 02:49:21;;;;;;;;;;;4.40;97.70;;;;;;5067498;28;20389;-68
2021/05/19 02:51:47;;;;;;;;;;;4.50;97.80;;;;;;5074655;28;19923;-67
2021/05/19 02:54:12;;;;;;;;;;;4.50;97.80;;;;;;5042295;28;19923;-67
2021/05/19 02:56:38;;;;;;;;;;;4.50;97.80;;;;;;5065439;28;20245;-66
2021/05/19 02:59:04;;;;;;;;;;;4.60;97.80;;;;;;5061245;28;19924;-67
2021/05/19 03:01:29;;;;;;;;;;;4.60;97.80;;;;;;5045662;28;19928;-68
2021/05/19 03:03:55;;;;;;;;;;;4.60;97.90;;;;;;5065264;28;19920;-67
2021/05/19 03:06:22;;;;;;;;;;;4.60;97.90;;;;;;5063377;28;20056;-66
2021/05/19 03:08:48;;;;;;;;;;;4.70;97.80;;;;;;5058130;28;20011;-67
2021/05/19 03:11:13;;;;;;;;;;;4.80;98.00;;;;;;5055729;28;20102;-66
2021/05/19 03:13:39;;;;;;;;;;;4.90;98.00;;;;;;5061545;28;19917;-67
2021/05/19 03:16:04;;;;;;;;;;;4.90;98.00;;;;;;5064539;28;19948;-67
2021/05/19 03:18:30;;;;;;;;;;;5.00;98.00;;;;;;5063523;28;19939;-66
2021/05/19 03:20:55;;;;;;;;;;;5.00;98.00;;;;;;5065235;28;19927;-66
2021/05/19 03:23:21;;;;;;;;;;;5.00;98.00;;;;;;5065025;28;19965;-67
2021/05/19 03:25:46;;;;;;;;;;;5.10;98.00;;;;;;5064898;28;19991;-66
2021/05/19 03:28:12;;;;;;;;;;;5.10;98.00;;;;;;5057341;28;19912;-66
2021/05/19 03:30:38;;;;;;;;;;;5.10;98.00;;;;;;5050829;28;19913;-67
2021/05/19 03:33:04;;;;;;;;;;;5.10;98.00;;;;;;5063637;28;20454;-67
2021/05/19 03:35:29;;;;;;;;;;;5.10;98.00;;;;;;5063971;28;19913;-68
2021/05/19 03:37:55;;;;;;;;;;;5.10;98.00;;;;;;5068709;28;20102;-67
2021/05/19 03:40:21;;;;;;;;;;;5.20;98.00;;;;;;5062698;28;19912;-67
2021/05/19 03:42:46;;;;;;;;;;;5.10;97.90;;;;;;5066414;28;19920;-66
2021/05/19 03:45:13;;;;;;;;;;;5.10;97.90;;;;;;5060523;28;19912;-66
2021/05/19 03:47:39;;;;;;;;;;;5.10;97.90;;;;;;5063100;28;19977;-68
2021/05/19 03:50:06;;;;;;;;;;;5.00;97.80;;;;;;5061889;28;20337;-67
2021/05/19 03:52:32;;;;;;;;;;;5.00;97.80;;;;;;5060449;28;19923;-67
2021/05/19 03:54:58;;;;;;;;;;;5.10;97.80;;;;;;5063019;28;20251;-67
2021/05/19 03:57:23;;;;;;;;;;;5.10;97.80;;;;;;5064897;28;20353;-65
2021/05/19 03:59:49;;;;;;;;;;;5.10;97.80;;;;;;5061966;28;19935;-66
2021/05/19 04:02:14;;;;;;;;;;;5.10;97.70;;;;;;5068047;28;19951;-66
2021/05/19 04:04:40;;;;;;;;;;;5.10;97.70;;;;;;5063215;28;19909;-66
2021/05/19 04:07:05;;;;;;;;;;;5.20;97.70;;;;;;5070317;28;19927;-66
2021/05/19 04:09:31;;;;;;;;;;;5.10;97.60;;;;;;5066081;28;20260;-66
2021/05/19 04:11:56;;;;;;;;;;;5.00;97.60;;;;;;5065101;28;19920;-66
2021/05/19 04:14:21;;;;;;;;;;;5.10;97.60;;;;;;5065811;28;19951;-66
2021/05/19 04:16:47;;;;;;;;;;;5.10;97.50;;;;;;5062939;28;19956;-69
2021/05/19 04:19:13;;;;;;;;;;;5.10;97.70;;;;;;5064743;28;19965;-67
2021/05/19 04:21:39;;;;;;;;;;;5.20;97.70;;;;;;5064365;28;20256;-67
2021/05/19 04:24:05;;;;;;;;;;;5.20;97.60;;;;;;5065999;28;20600;-67
2021/05/19 04:26:30;;;;;;;;;;;5.30;97.60;;;;;;5062137;28;19922;-66
2021/05/19 04:28:56;;;;;;;;;;;5.20;97.50;;;;;;5065754;28;20015;-68
2021/05/19 04:31:21;;;;;;;;;;;5.40;97.60;;;;;;5062849;28;20015;-66
2021/05/19 04:33:47;;;;;;;;;;;5.30;97.50;;;;;;5069733;28;19946;-67
2021/05/19 04:36:12;;;;;;;;;;;5.40;97.50;;;;;;5068083;28;19931;-66
2021/05/19 04:38:38;;;;;;;;;;;5.50;97.50;;;;;;5068927;28;19912;-67
2021/05/19 04:41:04;;;;;;;;;;;5.50;97.50;;;;;;5050355;28;20274;-66
2021/05/19 04:43:30;;;;;;;;;;;5.60;97.50;;;;;;5067983;28;19935;-66
2021/05/19 04:45:55;;;;;;;;;;;5.60;97.50;;;;;;5063468;28;19923;-67
2021/05/19 04:48:21;;;;;;;;;;;5.70;97.40;;;;;;5062426;28;19926;-67
2021/05/19 04:50:46;;;;;;;;;;;5.80;97.40;;;;;;5066331;28;19912;-66
2021/05/19 04:53:12;;;;;;;;;;;5.80;97.30;;;;;;5045079;28;19953;-67
2021/05/19 04:55:38;;;;;;;;;;;5.90;97.40;;;;;;5061175;28;19916;-67
2021/05/19 04:58:04;;;;;;;;;;;5.90;97.20;;;;;;5063526;28;19974;-66
2021/05/19 05:00:32;;;;;;;;;;;6.00;97.30;;;;;;5060216;28;19913;-67
2021/05/19 05:02:57;;;;;;;;;;;6.10;97.20;;;;;;5063156;28;19951;-67
2021/05/19 05:05:23;;;;;;;;;;;6.20;97.20;;;;;;5061929;28;20156;-67
2021/05/19 05:07:48;;;;;;;;;;;6.20;97.20;;;;;;5063365;28;19939;-67
2021/05/19 05:10:14;;;;;;;;;;;6.30;97.20;;;;;;5060061;28;19996;-66
2021/05/19 05:12:39;;;;;;;;;;;6.30;97.10;;;;;;5059742;28;20107;-67
2021/05/19 05:15:06;;;;;;;;;;;6.40;97.10;;;;;;5074646;28;19935;-68
2021/05/19 05:17:32;;;;;;;;;;;6.40;97.10;;;;;;5069049;28;19955;-68
2021/05/19 05:19:57;;;;;;;;;;;6.60;97.00;;;;;;5075364;28;19979;-67
2021/05/19 05:22:23;;;;;;;;;;;6.60;96.70;;;;;;5072321;28;19924;-70
2021/05/19 05:24:48;;;;;;;;;;;6.70;96.80;;;;;;5071307;28;19955;-67
2021/05/19 05:27:14;;;;;;;;;;;6.70;96.60;;;;;;5070469;28;19987;-67
2021/05/19 05:29:40;;;;;;;;;;;6.70;96.50;;;;;;5072084;28;20008;-67
2021/05/19 05:32:09;;;;;;;;;;;6.60;96.30;;;;;;5068324;28;20316;-67
2021/05/19 05:34:34;;;;;;;;;;;6.50;96.50;;;;;;5077220;28;19919;-66
2021/05/19 05:37:00;;;;;;;;;;;6.80;96.90;;;;;;5073084;28;19920;-69
2021/05/19 05:39:25;;;;;;;;;;;6.90;96.80;;;;;;5064654;28;20335;-67
2021/05/19 05:41:51;;;;;;;;;;;6.90;96.80;;;;;;5076093;28;20400;-67
2021/05/19 05:44:16;;;;;;;;;;;7.10;96.80;;;;;;5067007;28;20222;-68
2021/05/19 05:46:42;;;;;;;;;;;7.10;96.70;;;;;;5067114;28;20329;-68
2021/05/19 05:49:07;;;;;;;;;;;7.20;96.90;;;;;;5068610;28;19999;-68
2021/05/19 05:51:33;;;;;;;;;;;7.20;96.60;;;;;;5075161;28;20405;-67
2021/05/19 05:53:59;;;;;;;;;;;7.30;96.80;;;;;;5066571;28;19977;-67
2021/05/19 05:56:24;;;;;;;;;;;7.40;96.70;;;;;;5073360;28;19943;-67
2021/05/19 05:58:50;;;;;;;;;;;7.40;96.70;;;;;;5069146;28;19917;-68
2021/05/19 06:01:15;;;;;;;;;;;7.70;96.70;;;;;;5066846;28;20280;-69
2021/05/19 06:03:41;;;;;;;;;;;7.80;96.60;;;;;;5067014;28;19958;-67
2021/05/19 06:06:06;;;;;;;;;;;8.00;96.50;;;;;;5066525;28;20029;-68
2021/05/19 06:08:32;;;;;;;;;;;8.20;96.40;;;;;;5059813;28;19909;-69
2021/05/19 06:10:58;;;;;;;;;;;8.30;96.20;;;;;;5066712;28;19970;-68
2021/05/19 06:13:24;;;;;;;;;;;8.60;96.30;;;;;;5069344;28;19966;-67
2021/05/19 06:15:49;;;;;;;;;;;8.90;95.30;;;;;;5067848;28;19958;-68
2021/05/19 06:18:15;;;;;;;;;;;9.10;95.30;;;;;;5063833;28;20310;-68
2021/05/19 06:20:40;;;;;;;;;;;9.10;94.90;;;;;;5067036;28;22618;-68
2021/05/19 06:23:06;;;;;;;;;;;9.20;94.50;;;;;;5070768;28;19935;-68
2021/05/19 06:25:31;;;;;;;;;;;9.40;94.20;;;;;;5079218;28;19990;-68
2021/05/19 06:27:57;;;;;;;;;;;9.60;93.70;;;;;;5073387;28;20024;-68
2021/05/19 06:30:22;;;;;;;;;;;9.60;93.10;;;;;;5063804;28;19921;-68
2021/05/19 06:32:48;;;;;;;;;;;9.70;93.00;;;;;;5068241;28;19927;-68
2021/05/19 06:35:13;;;;;;;;;;;10.00;92.40;;;;;;5073172;28;19943;-69
2021/05/19 06:37:39;;;;;;;;;;;10.00;92.10;;;;;;5048644;28;19978;-69
2021/05/19 06:40:05;;;;;;;;;;;10.20;92.00;;;;;;5066017;28;19974;-68
2021/05/19 06:42:31;;;;;;;;;;;10.10;91.80;;;;;;5066064;28;19974;-69
2021/05/19 06:44:56;;;;;;;;;;;10.30;92.00;;;;;;5066070;28;20135;-68
2021/05/19 06:47:22;;;;;;;;;;;10.20;90.60;;;;;;5064379;28;19924;-69
2021/05/19 06:49:47;;;;;;;;;;;10.40;91.50;;;;;;5062568;28;19995;-68
2021/05/19 06:52:13;;;;;;;;;;;10.30;91.20;;;;;;5065375;28;19924;-69
2021/05/19 06:54:38;;;;;;;;;;;10.30;90.90;;;;;;5057174;28;19916;-69
2021/05/19 06:57:04;;;;;;;;;;;10.40;91.10;;;;;;5065005;28;19912;-68
2021/05/19 06:59:29;;;;;;;;;;;10.60;91.70;;;;;;5065192;28;19966;-68
2021/05/19 07:01:55;;;;;;;;;;;10.60;91.10;;;;;;5046825;28;20026;-68
2021/05/19 07:04:21;;;;;;;;;;;11.00;90.40;;;;;;5066791;28;19912;-69
2021/05/19 07:06:47;;;;;;;;;;;11.50;89.40;;;;;;5051908;28;20116;-67
2021/05/19 07:09:12;;;;;;;;;;;11.50;88.20;;;;;;5069575;28;20035;-69
2021/05/19 07:11:38;;;;;;;;;;;11.50;88.30;;;;;;5063303;28;20364;-66
2021/05/19 07:14:05;;;;;;;;;;;11.40;87.20;;;;;;5072501;28;20037;-67
2021/05/19 07:16:33;;;;;;;;;;;11.50;87.40;;;;;;5063865;28;19985;-69
2021/05/19 07:18:58;;;;;;;;;;;11.50;87.10;;;;;;5070824;28;19924;-68
2021/05/19 07:21:24;;;;;;;;;;;11.40;86.20;;;;;;5070577;28;20053;-67
2021/05/19 07:23:50;;;;;;;;;;;11.30;86.10;;;;;;5070697;28;20323;-66
2021/05/19 07:26:15;;;;;;;;;;;11.10;85.80;;;;;;5064502;28;20421;-67
2021/05/19 07:28:41;;;;;;;;;;;11.30;85.60;;;;;;5064801;28;20314;-67
2021/05/19 07:31:07;;;;;;;;;;;11.20;86.10;;;;;;5063418;28;19932;-67
2021/05/19 07:33:33;;;;;;;;;;;11.70;83.20;;;;;;5068943;28;19931;-66
2021/05/19 07:35:58;;;;;;;;;;;12.10;82.80;;;;;;5063898;28;19939;-67
2021/05/19 07:38:24;;;;;;;;;;;12.60;79.50;;;;;;5074054;28;19999;-68
2021/05/19 07:40:50;;;;;;;;;;;12.00;79.30;;;;;;5063865;28;19945;-66
2021/05/19 07:43:16;;;;;;;;;;;12.40;79.00;;;;;;5065142;28;19916;-68
2021/05/19 07:45:42;;;;;;;;;;;12.40;78.10;;;;;;5062527;28;19999;-68
2021/05/19 07:48:09;;;;;;;;;;;12.60;79.10;;;;;;5066836;28;19999;-68
2021/05/19 07:50:35;;;;;;;;;;;12.50;78.90;;;;;;5066049;28;19920;-68
2021/05/19 07:53:00;;;;;;;;;;;12.00;81.20;;;;;;5069642;28;19920;-67
2021/05/19 07:56:15;;;;;;;;;;;12.10;80.60;;;;;;5066739;28;20333;-67
2021/05/19 07:58:25;;;;;;;;;;;11.90;79.90;;;;;;5062885;28;20288;-68
2021/05/19 08:01:02;;;;;;;;;;;12.20;78.50;;;;;;5066451;28;19912;-68
2021/05/19 08:03:30;;;;;;;;;;;12.60;77.70;;;;;;5070590;28;19923;-67
2021/05/19 08:05:56;;;;;;;;;;;13.10;76.00;;;;;;5064099;28;19940;-68
2021/05/19 08:08:22;;;;;;;;;;;13.00;75.50;;;;;;5047124;28;20372;-70
2021/05/19 08:10:47;;;;;;;;;;;13.50;74.30;;;;;;5069001;28;20055;-68
2021/05/19 08:13:13;;;;;;;;;;;13.90;74.10;;;;;;5065104;28;19927;-69
2021/05/19 08:15:38;;;;;;;;;;;13.50;75.00;;;;;;5063237;28;19923;-68
2021/05/19 08:18:07;;;;;;;;;;;12.90;75.30;;;;;;5062633;28;19994;-69
2021/05/19 08:20:33;;;;;;;;;;;13.00;75.00;;;;;;5060440;28;19998;-69
2021/05/19 08:22:58;;;;;;;;;;;13.60;73.50;;;;;;5059666;28;20459;-67
2021/05/19 08:25:25;;;;;;;;;;;13.70;71.30;;;;;;5064868;28;19973;-67
2021/05/19 08:27:50;;;;;;;;;;;13.90;71.80;;;;;;5045469;28;20211;-68
2021/05/19 08:30:16;;;;;;;;;;;14.00;72.20;;;;;;5069193;28;19920;-68
2021/05/19 08:32:42;;;;;;;;;;;14.30;69.50;;;;;;5052830;28;20400;-68
2021/05/19 08:35:07;;;;;;;;;;;15.00;71.10;;;;;;5069588;28;20519;-68
2021/05/19 08:37:33;;;;;;;;;;;15.00;68.60;;;;;;5065071;28;19978;-69
2021/05/19 08:39:59;;;;;;;;;;;14.40;69.80;;;;;;5066833;28;19991;-69
2021/05/19 08:42:25;;;;;;;;;;;14.60;70.40;;;;;;5069068;28;19930;-68
2021/05/19 08:44:51;;;;;;;;;;;14.90;66.40;;;;;;5059809;28;19924;-66
2021/05/19 08:47:21;;;;;;;;;;;15.40;67.40;;;;;;5064228;28;19988;-68
2021/05/19 08:49:47;;;;;;;;;;;15.60;67.70;;;;;;5063121;28;20298;-68
2021/05/19 08:52:13;;;;;;;;;;;15.20;64.70;;;;;;5062752;28;19964;-69
2021/05/19 08:54:39;;;;;;;;;;;15.40;63.20;;;;;;5066849;28;19923;-67
2021/05/19 08:57:04;;;;;;;;;;;14.80;65.30;;;;;;5063218;28;20066;-68
2021/05/19 08:59:30;;;;;;;;;;;14.40;67.60;;;;;;5065143;28;19912;-69
2021/05/19 09:02:05;;;;;;;;;;;14.50;66.00;;;;;;5062877;28;19913;-69
2021/05/19 09:04:30;;;;;;;;;;;14.50;68.40;;;;;;5058487;28;20013;-68
2021/05/19 09:07:01;;;;;;;;;;;15.10;66.70;;;;;;5062107;28;19965;-69
2021/05/19 09:09:28;;;;;;;;;;;14.70;67.10;;;;;;5061610;28;19924;-68
2021/05/19 09:11:56;;;;;;;;;;;14.10;67.00;;;;;;5061012;28;20000;-68
2021/05/19 09:14:22;;;;;;;;;;;13.80;68.60;;;;;;5060619;28;19928;-67
2021/05/19 09:16:47;;;;;;;;;;;13.80;68.10;;;;;;5065584;28;19912;-69
2021/05/19 09:19:13;;;;;;;;;;;14.50;67.10;;;;;;5060551;28;19920;-70
2021/05/19 09:21:42;;;;;;;;;;;15.00;64.10;;;;;;5066171;28;19976;-69
2021/05/19 09:24:14;;;;;;;;;;;15.00;66.40;;;;;;5065202;28;20588;-68
2021/05/19 09:26:58;;;;;;;;;;;14.80;65.90;;;;;;5040958;28;20185;-69
2021/05/19 09:29:25;;;;;;;;;;;14.70;65.70;;;;;;5066480;28;20227;-69
2021/05/19 09:31:51;;;;;;;;;;;14.40;63.50;;;;;;5066834;28;19923;-68
2021/05/19 09:34:21;;;;;;;;;;;14.10;64.90;;;;;;5068454;28;19916;-68
2021/05/19 09:36:46;;;;;;;;;;;13.80;67.00;;;;;;5063494;28;20268;-68
2021/05/19 09:39:12;;;;;;;;;;;14.00;67.40;;;;;;5063217;28;19909;-68
2021/05/19 09:41:37;;;;;;;;;;;13.90;68.40;;;;;;5063997;28;19932;-68
2021/05/19 09:44:05;;;;;;;;;;;13.80;69.40;;;;;;5058288;28;19908;-68
2021/05/19 09:49:11;;;;;;;;;;;15.20;65.90;;;;;;5065252;28;19912;-67
2021/05/19 09:51:37;;;;;;;;;;;15.40;63.40;;;;;;5077579;28;19974;-69
2021/05/19 09:54:02;;;;;;;;;;;15.10;64.80;;;;;;5061618;28;19912;-67
2021/05/19 09:56:28;;;;;;;;;;;15.00;64.70;;;;;;5063633;28;19913;-68
2021/05/19 09:58:53;;;;;;;;;;;15.40;63.90;;;;;;5064873;28;20066;-68
2021/05/19 10:01:19;;;;;;;;;;;16.00;61.60;;;;;;5067616;28;19920;-69
2021/05/19 10:03:44;;;;;;;;;;;15.60;58.60;;;;;;5071957;28;19982;-68
2021/05/19 10:06:24;;;;;;;;;;;16.20;57.40;;;;;;5067092;28;20008;-69
2021/05/19 10:08:50;;;;;;;;;;;16.50;58.30;;;;;;5050687;28;19996;-68
2021/05/19 10:11:16;;;;;;;;;;;16.20;57.60;;;;;;5066987;28;20050;-68
2021/05/19 10:13:42;;;;;;;;;;;15.90;58.50;;;;;;5066098;28;20384;-70
2021/05/19 10:16:09;;;;;;;;;;;16.30;57.90;;;;;;5062940;28;20325;-70
2021/05/19 10:18:45;;;;;;;;;;;16.20;57.70;;;;;;5064393;28;19920;-70
2021/05/19 10:21:10;;;;;;;;;;;16.50;57.10;;;;;;5061403;28;19959;-68
2021/05/19 10:23:38;;;;;;;;;;;16.00;57.50;;;;;;5065946;28;19948;-68
2021/05/19 10:26:21;;;;;;;;;;;15.70;60.30;;;;;;5067168;28;19920;-68
2021/05/19 10:28:47;;;;;;;;;;;15.20;60.90;;;;;;5061469;28;20335;-68
2021/05/19 10:31:40;;;;;;;;;;;15.00;62.00;;;;;;5068010;28;19913;-68
2021/05/19 10:34:06;;;;;;;;;;;14.60;63.30;;;;;;5066114;28;19959;-70
2021/05/19 10:36:36;;;;;;;;;;;14.00;68.20;;;;;;5064781;28;20485;-69
2021/05/19 10:39:11;;;;;;;;;;;13.60;71.00;;;;;;5059886;28;19912;-67
2021/05/19 10:41:40;;;;;;;;;;;13.40;74.80;;;;;;5064732;28;20266;-68
2021/05/19 10:44:07;;;;;;;;;;;13.30;75.00;;;;;;5070041;28;20435;-68
2021/05/19 10:46:49;;;;;;;;;;;13.30;74.70;;;;;;5065853;28;20056;-68
2021/05/19 10:49:19;;;;;;;;;;;14.10;71.70;;;;;;5065107;28;19923;-68
2021/05/19 10:51:54;;;;;;;;;;;15.40;71.30;;;;;;5065131;28;20283;-68
2021/05/19 10:57:30;;;;;;;;;;;16.00;62.70;;;;;;5065972;28;19927;-69
2021/05/19 11:00:22;;;;;;;;;;;15.90;65.40;;;;;;5064833;28;19924;-67
2021/05/19 11:02:53;;;;;;;;;;;15.30;62.20;;;;;;5067274;28;20022;-68
2021/05/19 11:05:23;;;;;;;;;;;14.90;64.80;;;;;;5066648;28;19912;-67
2021/05/19 11:10:36;;;;;;;;;;;14.50;65.30;;;;;;5063397;28;19929;-68
2021/05/19 11:13:02;;;;;;;;;;;14.40;66.70;;;;;;5065815;28;20146;-66
2021/05/19 11:18:30;;;;;;;;;;;14.00;72.20;;;;;;5062993;28;19916;-67
2021/05/19 11:20:57;;;;;;;;;;;14.00;70.20;;;;;;5065570;28;20336;-66
2021/05/19 11:23:23;;;;;;;;;;;14.00;68.30;;;;;;5069564;28;19958;-67
2021/05/19 11:25:49;;;;;;;;;;;14.00;68.80;;;;;;5069745;28;19912;-67
2021/05/19 11:28:23;;;;;;;;;;;14.00;69.80;;;;;;5077459;28;19930;-66
2021/05/19 11:30:48;;;;;;;;;;;14.10;69.30;;;;;;5066971;28;19912;-66
2021/05/19 11:33:18;;;;;;;;;;;14.20;69.30;;;;;;5066669;28;19916;-68
2021/05/19 11:35:46;;;;;;;;;;;14.30;67.20;;;;;;5067563;28;20032;-67
2021/05/19 11:38:13;;;;;;;;;;;14.60;69.80;;;;;;5063078;28;19917;-66
2021/05/19 11:40:40;;;;;;;;;;;14.50;68.70;;;;;;5064729;28;20329;-67
2021/05/19 11:43:06;;;;;;;;;;;15.00;70.30;;;;;;5069574;28;19932;-67
2021/05/19 11:45:32;;;;;;;;;;;15.00;67.50;;;;;;5062162;28;19988;-67
2021/05/19 11:47:57;;;;;;;;;;;14.90;63.90;;;;;;5065838;28;20404;-66
2021/05/19 11:50:27;;;;;;;;;;;15.00;65.20;;;;;;5061871;28;19996;-67
2021/05/19 11:53:01;;;;;;;;;;;15.00;67.80;;;;;;5061891;28;20010;-67
2021/05/19 11:55:31;;;;;;;;;;;14.80;65.60;;;;;;5060606;28;20329;-68
2021/05/19 11:58:22;;;;;;;;;;;14.60;64.80;;;;;;5066127;28;19978;-67
2021/05/19 12:00:48;;;;;;;;;;;14.80;66.30;;;;;;5060496;28;19931;-69
2021/05/19 12:03:14;;;;;;;;;;;15.00;69.70;;;;;;5044279;28;20183;-68
2021/05/19 12:05:47;;;;;;;;;;;15.00;66.70;;;;;;5058194;28;20015;-68
2021/05/19 12:08:14;;;;;;;;;;;14.80;66.40;;;;;;5065240;28;20261;-68
2021/05/19 12:10:41;;;;;;;;;;;14.90;70.90;;;;;;5059958;28;19924;-68
2021/05/19 12:13:07;;;;;;;;;;;14.90;66.10;;;;;;5062247;28;20402;-69
2021/05/19 12:15:34;;;;;;;;;;;16.00;65.40;;;;;;5060888;28;19935;-69
2021/05/19 12:18:00;;;;;;;;;;;17.00;59.80;;;;;;5045340;28;19916;-68
2021/05/19 12:20:26;;;;;;;;;;;16.20;58.70;;;;;;5062919;28;19932;-70
2021/05/19 12:22:53;;;;;;;;;;;15.70;60.60;;;;;;5058890;28;20363;-68
2021/05/19 12:25:18;;;;;;;;;;;15.70;61.70;;;;;;5062091;28;19927;-68
2021/05/19 12:27:44;;;;;;;;;;;15.70;60.20;;;;;;5041062;28;19913;-68
2021/05/19 12:30:10;;;;;;;;;;;15.50;61.00;;;;;;5058419;28;20275;-69
2021/05/19 12:32:36;;;;;;;;;;;15.50;60.50;;;;;;5066857;28;19926;-68
2021/05/19 12:35:06;;;;;;;;;;;16.50;59.80;;;;;;5059441;28;19976;-68
2021/05/19 12:37:35;;;;;;;;;;;17.60;58.40;;;;;;5061287;28;20371;-68
2021/05/19 12:40:00;;;;;;;;;;;18.50;54.30;;;;;;5061526;28;19932;-70
2021/05/19 12:42:27;;;;;;;;;;;19.20;49.80;;;;;;5058033;28;19920;-68
2021/05/19 12:44:59;;;;;;;;;;;19.50;48.50;;;;;;5060471;28;19940;-69
2021/05/19 12:47:25;;;;;;;;;;;19.30;48.00;;;;;;5060696;28;20014;-68
2021/05/19 12:49:58;;;;;;;;;;;19.10;46.40;;;;;;5060597;28;19967;-69
2021/05/19 12:52:24;;;;;;;;;;;18.50;49.70;;;;;;5059643;28;20058;-68
2021/05/19 12:54:51;;;;;;;;;;;17.50;48.50;;;;;;5059800;28;20009;-69
2021/05/19 12:57:20;;;;;;;;;;;16.80;52.20;;;;;;5079292;28;20233;-68
2021/05/19 12:59:53;;;;;;;;;;;16.60;53.20;;;;;;5061295;28;20281;-70
2021/05/19 13:02:20;;;;;;;;;;;16.50;55.20;;;;;;5060551;28;19940;-68
2021/05/19 13:04:49;;;;;;;;;;;16.50;54.70;;;;;;5062195;28;19927;-68
2021/05/19 13:07:15;;;;;;;;;;;16.30;56.60;;;;;;5064921;28;20004;-71
2021/05/19 13:09:41;;;;;;;;;;;15.90;60.10;;;;;;5060925;28;19916;-69
2021/05/19 13:12:20;;;;;;;;;;;15.90;60.40;;;;;;5059904;28;19927;-69
2021/05/19 13:14:49;;;;;;;;;;;16.00;59.40;;;;;;5061792;28;19943;-68
2021/05/19 13:17:24;;;;;;;;;;;17.00;58.20;;;;;;5061817;28;19961;-71
2021/05/19 13:19:57;;;;;;;;;;;17.50;56.90;;;;;;5039295;28;19920;-70
2021/05/19 13:22:23;;;;;;;;;;;17.20;55.30;;;;;;5059822;28;19964;-69
2021/05/19 13:24:50;;;;;;;;;;;17.70;53.20;;;;;;5060548;28;20046;-69
2021/05/19 13:27:24;;;;;;;;;;;19.10;52.00;;;;;;5060480;28;19916;-70
2021/05/19 13:29:50;;;;;;;;;;;19.00;50.10;;;;;;5059470;28;19912;-70
2021/05/19 13:32:21;;;;;;;;;;;18.50;50.50;;;;;;5060482;28;19932;-69
2021/05/19 13:37:30;;;;;;;;;;;19.00;48.00;;;;;;5062999;28;19960;-69
2021/05/19 13:39:57;;;;;;;;;;;18.80;48.50;;;;;;5062449;28;20347;-71
2021/05/19 13:42:23;;;;;;;;;;;18.50;50.00;;;;;;5060641;28;19920;-70
2021/05/19 13:44:48;;;;;;;;;;;19.00;48.50;;;;;;5062474;28;20054;-70
2021/05/19 13:47:14;;;;;;;;;;;18.60;49.60;;;;;;5062175;28;19920;-71
2021/05/19 13:49:40;;;;;;;;;;;17.70;51.50;;;;;;5064085;28;20006;-69
2021/05/19 13:52:07;;;;;;;;;;;17.40;50.60;;;;;;5060980;28;19931;-70
2021/05/19 13:54:36;;;;;;;;;;;16.60;56.40;;;;;;5066234;28;20003;-69
2021/05/19 13:57:01;;;;;;;;;;;16.90;57.00;;;;;;5063444;28;20022;-69
2021/05/19 13:59:26;;;;;;;;;;;16.20;57.30;;;;;;5064301;28;19938;-69
2021/05/19 14:01:52;;;;;;;;;;;16.00;57.90;;;;;;5060721;28;19917;-69
2021/05/19 14:04:18;;;;;;;;;;;15.60;57.20;;;;;;5063089;28;20030;-70
2021/05/19 14:06:44;;;;;;;;;;;15.60;58.00;;;;;;5063885;28;20357;-69
2021/05/19 14:09:10;;;;;;;;;;;15.30;59.10;;;;;;5065142;28;20383;-69
2021/05/19 14:15:16;;;;;;;;;;;14.90;61.30;;;;;;5064106;28;20045;-69
2021/05/19 14:17:17;;;;;;;;;;;14.90;61.30;;;;;;5044517;28;19920;-72
2021/05/19 14:27:43;;;;;;;;;;;15.00;59.50;;;;;;5063371;28;20363;-69
2021/05/19 14:30:10;;;;;;;;;;;15.00;57.70;;;;;;5032812;28;20335;-70
2021/05/19 14:32:35;;;;;;;;;;;15.10;57.10;;;;;;5033310;28;20294;-70
2021/05/19 14:35:05;;;;;;;;;;;15.40;56.50;;;;;;5062938;28;20031;-69
2021/05/19 15:01:38;;;;;;;;;;;14.90;63.80;;;;;;5061661;28;20109;-68
2021/05/19 15:04:04;;;;;;;;;;;14.80;66.00;;;;;;5061277;28;19935;-69
2021/05/19 15:06:31;;;;;;;;;;;14.60;66.00;;;;;;5062881;28;20330;-68
2021/05/19 15:08:57;;;;;;;;;;;14.30;65.20;;;;;;5064264;28;19912;-69
2021/05/19 15:11:23;;;;;;;;;;;14.00;66.20;;;;;;5065025;28;19920;-70
2021/05/19 15:13:49;;;;;;;;;;;13.80;65.70;;;;;;5058596;28;19925;-68
2021/05/19 15:16:14;;;;;;;;;;;13.70;66.40;;;;;;5063795;28;19928;-70